Time,TemperatureF,DewpointF,PressureIn,WindDirection,WindDirectionDegrees,WindSpeedMPH,WindSpeedGustMPH,Humidity,HourlyPrecipIn,Conditions,Clouds,dailyrainin,SoftwareType,DateUTC
2013-10-06 00:00:00,71.6,64.0,30.09,SSW,203,0.0,0.0,77,0.00,,,0.00,WUHU216HW,2013-10-06 04:00:00,
2013-10-06 00:01:00,71.6,64.0,30.09,SSW,203,0.0,0.0,77,0.00,,,0.00,WUHU216HW,2013-10-06 04:01:00,
2013-10-06 00:02:00,71.6,64.0,30.09,SSW,203,0.0,0.0,77,0.00,,,0.00,WUHU216HW,2013-10-06 04:02:00,
2013-10-06 00:07:00,71.6,64.0,30.09,SSW,203,0.0,0.0,77,0.00,,,0.00,WUHU216HW,2013-10-06 04:07:00,
2013-10-06 00:30:00,71.1,63.9,30.09,SSW,203,0.0,0.0,78,0.00,,,0.00,WUHU216HW,2013-10-06 04:30:00,
2013-10-06 00:35:00,71.1,63.9,30.09,SSW,203,0.0,0.0,78,0.00,,,0.00,WUHU216HW,2013-10-06 04:35:00,
2013-10-06 01:00:00,70.6,63.7,30.08,WSW,248,0.0,0.0,79,0.00,,,0.00,WUHU216HW,2013-10-06 05:00:00,
2013-10-06 01:05:00,70.6,63.7,30.08,WSW,248,0.0,0.0,79,0.00,,,0.00,WUHU216HW,2013-10-06 05:05:00,
2013-10-06 01:30:00,70.2,63.7,30.08,SW,225,0.0,0.0,80,0.00,,,0.00,WUHU216HW,2013-10-06 05:30:00,
2013-10-06 01:35:00,70.2,63.7,30.08,SW,225,0.0,0.0,80,0.00,,,0.00,WUHU216HW,2013-10-06 05:35:00,
2013-10-06 02:00:00,69.7,63.2,30.08,SW,225,0.2,0.2,80,0.00,,,0.00,WUHU216HW,2013-10-06 06:00:00,
2013-10-06 02:05:00,69.7,63.2,30.08,SW,225,0.2,0.2,80,0.00,,,0.00,WUHU216HW,2013-10-06 06:05:00,
2013-10-06 02:30:00,69.3,63.2,30.07,WSW,248,0.0,0.0,81,0.00,,,0.00,WUHU216HW,2013-10-06 06:30:00,
2013-10-06 02:35:00,69.3,63.2,30.07,WSW,248,0.0,0.0,81,0.00,,,0.00,WUHU216HW,2013-10-06 06:35:00,
2013-10-06 03:00:00,68.9,63.2,30.06,SW,225,0.0,0.0,82,0.00,,,0.00,WUHU216HW,2013-10-06 07:00:00,
2013-10-06 03:05:00,68.9,63.2,30.06,SW,225,0.0,0.0,82,0.00,,,0.00,WUHU216HW,2013-10-06 07:05:00,
2013-10-06 03:30:00,68.4,62.7,30.05,SW,225,0.0,0.0,82,0.00,,,0.00,WUHU216HW,2013-10-06 07:30:00,
2013-10-06 03:35:00,68.4,62.7,30.05,SW,225,0.0,0.0,82,0.00,,,0.00,WUHU216HW,2013-10-06 07:35:00,
2013-10-06 04:00:00,68.0,62.4,30.05,SW,225,0.0,0.0,82,0.00,,,0.00,WUHU216HW,2013-10-06 08:00:00,
2013-10-06 04:05:00,68.0,62.4,30.05,SW,225,0.0,0.0,82,0.00,,,0.00,WUHU216HW,2013-10-06 08:05:00,
2013-10-06 04:30:00,67.7,62.4,30.05,SW,225,0.0,0.0,83,0.00,,,0.00,WUHU216HW,2013-10-06 08:30:00,
2013-10-06 04:35:00,67.7,62.4,30.05,SW,225,0.0,0.0,83,0.00,,,0.00,WUHU216HW,2013-10-06 08:35:00,
2013-10-06 05:00:00,67.3,62.0,30.05,SW,225,0.0,0.0,83,0.00,,,0.00,WUHU216HW,2013-10-06 09:00:00,
2013-10-06 05:05:00,67.3,62.0,30.05,SW,225,0.0,0.0,83,0.00,,,0.00,WUHU216HW,2013-10-06 09:05:00,
2013-10-06 05:09:00,67.3,62.0,30.05,SW,225,0.0,0.0,83,0.00,,,0.00,WUHU216HW,2013-10-06 09:09:00,
2013-10-06 05:30:00,67.0,61.9,30.06,SW,225,0.0,0.0,84,0.00,,,0.00,WUHU216HW,2013-10-06 09:30:00,
2013-10-06 05:35:00,67.0,61.9,30.06,SW,225,0.0,0.0,84,0.00,,,0.00,WUHU216HW,2013-10-06 09:35:00,
2013-10-06 06:00:00,66.6,61.6,30.06,SW,225,0.0,0.0,84,0.00,,,0.00,WUHU216HW,2013-10-06 10:00:00,
2013-10-06 06:05:00,66.6,61.6,30.06,SW,225,0.0,0.0,84,0.00,,,0.00,WUHU216HW,2013-10-06 10:05:00,
2013-10-06 06:30:00,66.2,61.6,30.06,SW,225,0.0,0.0,85,0.00,,,0.00,WUHU216HW,2013-10-06 10:30:00,
2013-10-06 06:35:00,66.2,61.6,30.06,SW,225,0.0,0.0,85,0.00,,,0.00,WUHU216HW,2013-10-06 10:35:00,
2013-10-06 07:00:00,65.9,61.2,30.06,SW,225,0.0,0.0,85,0.00,,,0.00,WUHU216HW,2013-10-06 11:00:00,
2013-10-06 07:05:00,65.9,61.2,30.06,SW,225,0.0,0.0,85,0.00,,,0.00,WUHU216HW,2013-10-06 11:05:00,
2013-10-06 07:30:00,65.5,61.2,30.06,SW,225,0.0,0.0,86,0.00,,,0.00,WUHU216HW,2013-10-06 11:30:00,
2013-10-06 07:35:00,65.5,61.2,30.06,SW,225,0.0,0.0,86,0.00,,,0.00,WUHU216HW,2013-10-06 11:35:00,
2013-10-06 08:00:00,65.2,60.8,30.07,SW,225,0.0,0.0,86,0.00,,,0.00,WUHU216HW,2013-10-06 12:00:00,
2013-10-06 08:05:00,65.2,60.8,30.07,SW,225,0.0,0.0,86,0.00,,,0.00,WUHU216HW,2013-10-06 12:05:00,
2013-10-06 08:30:00,65.3,61.0,30.08,SSW,203,0.0,0.0,86,0.00,,,0.00,WUHU216HW,2013-10-06 12:30:00,
2013-10-06 08:35:00,65.3,61.0,30.08,SSW,203,0.0,0.0,86,0.00,,,0.00,WUHU216HW,2013-10-06 12:35:00,
2013-10-06 09:00:00,66.2,62.6,30.08,SSE,158,0.0,0.0,88,0.00,,,0.00,WUHU216HW,2013-10-06 13:00:00,
2013-10-06 09:05:00,66.2,62.6,30.08,SSE,158,0.0,0.0,88,0.00,,,0.00,WUHU216HW,2013-10-06 13:05:00,
2013-10-06 09:30:00,68.0,64.4,30.08,SE,135,0.7,0.7,88,0.00,,,0.00,WUHU216HW,2013-10-06 13:30:00,
2013-10-06 09:35:00,68.0,64.4,30.08,SE,135,0.7,0.7,88,0.00,,,0.00,WUHU216HW,2013-10-06 13:35:00,
2013-10-06 10:00:00,69.8,66.1,30.08,NNE,23,0.0,0.0,88,0.00,,,0.00,WUHU216HW,2013-10-06 14:00:00,
2013-10-06 10:05:00,69.8,66.1,30.08,NNE,23,0.0,0.0,88,0.00,,,0.00,WUHU216HW,2013-10-06 14:05:00,
2013-10-06 10:30:00,72.0,67.2,30.09,SW,225,0.9,0.9,85,0.00,,,0.00,WUHU216HW,2013-10-06 14:30:00,
2013-10-06 10:35:00,72.0,67.2,30.09,SW,225,0.9,0.9,85,0.00,,,0.00,WUHU216HW,2013-10-06 14:35:00,
2013-10-06 11:00:00,73.8,68.1,30.08,SE,135,2.5,2.5,82,0.00,,,0.00,WUHU216HW,2013-10-06 15:00:00,
2013-10-06 11:05:00,73.8,68.1,30.08,SE,135,2.5,2.5,82,0.00,,,0.00,WUHU216HW,2013-10-06 15:05:00,
2013-10-06 11:30:00,75.2,68.8,30.08,SW,225,0.4,0.4,80,0.00,,,0.00,WUHU216HW,2013-10-06 15:30:00,
2013-10-06 11:35:00,75.2,68.8,30.08,SW,225,0.4,0.4,80,0.00,,,0.00,WUHU216HW,2013-10-06 15:35:00,
2013-10-06 12:00:00,76.3,68.9,30.07,NNE,23,0.4,0.4,78,0.00,,,0.00,WUHU216HW,2013-10-06 16:00:00,
2013-10-06 12:05:00,76.3,68.9,30.07,NNE,23,0.4,0.4,78,0.00,,,0.00,WUHU216HW,2013-10-06 16:05:00,
2013-10-06 12:30:00,78.1,69.5,30.06,SSE,158,1.3,1.3,75,0.00,,,0.00,WUHU216HW,2013-10-06 16:30:00,
2013-10-06 12:35:00,78.1,69.5,30.06,SSE,158,1.3,1.3,75,0.00,,,0.00,WUHU216HW,2013-10-06 16:35:00,
2013-10-06 13:00:00,79.0,69.2,30.05,SE,135,1.3,1.3,72,0.00,,,0.00,WUHU216HW,2013-10-06 17:00:00,
2013-10-06 13:05:00,79.0,69.2,30.05,SE,135,1.3,1.3,72,0.00,,,0.00,WUHU216HW,2013-10-06 17:05:00,
2013-10-06 13:30:00,80.5,69.8,30.04,SE,135,1.1,1.1,70,0.00,,,0.00,WUHU216HW,2013-10-06 17:30:00,
2013-10-06 13:35:00,80.5,69.8,30.04,SE,135,1.1,1.1,70,0.00,,,0.00,WUHU216HW,2013-10-06 17:35:00,
2013-10-06 14:00:00,81.0,69.5,30.02,NW,315,1.1,1.1,68,0.00,,,0.00,WUHU216HW,2013-10-06 18:00:00,
2013-10-06 14:05:00,81.0,69.5,30.02,NW,315,1.1,1.1,68,0.00,,,0.00,WUHU216HW,2013-10-06 18:05:00,
2013-10-06 14:30:00,81.4,69.3,30.01,WSW,248,1.1,1.1,67,0.00,,,0.00,WUHU216HW,2013-10-06 18:30:00,
2013-10-06 14:35:00,81.4,69.3,30.01,WSW,248,1.1,1.1,67,0.00,,,0.00,WUHU216HW,2013-10-06 18:35:00,
2013-10-06 15:00:00,81.0,69.0,30.00,WSW,248,0.4,0.4,67,0.00,,,0.00,WUHU216HW,2013-10-06 19:00:00,
2013-10-06 15:05:00,81.0,69.0,30.00,WSW,248,0.4,0.4,67,0.00,,,0.00,WUHU216HW,2013-10-06 19:05:00,
2013-10-06 15:30:00,81.0,68.6,29.99,WSW,248,0.4,0.4,66,0.00,,,0.00,WUHU216HW,2013-10-06 19:30:00,
2013-10-06 15:35:00,81.0,68.6,29.99,WSW,248,0.4,0.4,66,0.00,,,0.00,WUHU216HW,2013-10-06 19:35:00,
2013-10-06 16:00:00,81.7,69.2,29.98,SW,225,0.7,0.7,66,0.00,,,0.00,WUHU216HW,2013-10-06 20:00:00,
2013-10-06 16:05:00,81.7,69.2,29.98,SW,225,0.7,0.7,66,0.00,,,0.00,WUHU216HW,2013-10-06 20:05:00,
2013-10-06 16:30:00,81.0,68.6,29.97,SSE,158,0.7,0.7,66,0.00,,,0.00,WUHU216HW,2013-10-06 20:30:00,
2013-10-06 16:35:00,81.0,68.6,29.97,SSE,158,0.7,0.7,66,0.00,,,0.00,WUHU216HW,2013-10-06 20:35:00,
2013-10-06 17:00:00,81.4,68.4,29.96,East,90,0.4,0.4,65,0.00,,,0.00,WUHU216HW,2013-10-06 21:00:00,
2013-10-06 17:05:00,81.4,68.4,29.96,East,90,0.4,0.4,65,0.00,,,0.00,WUHU216HW,2013-10-06 21:05:00,
2013-10-06 17:30:00,81.7,68.3,29.96,SSE,158,1.3,1.3,64,0.00,,,0.00,WUHU216HW,2013-10-06 21:30:00,
2013-10-06 17:35:00,81.7,68.3,29.96,SSE,158,1.3,1.3,64,0.00,,,0.00,WUHU216HW,2013-10-06 21:35:00,
2013-10-06 18:00:00,80.6,68.7,29.97,SSE,158,1.8,1.8,67,0.00,,,0.00,WUHU216HW,2013-10-06 22:00:00,
2013-10-06 18:05:00,80.6,68.7,29.97,SSE,158,1.8,1.8,67,0.00,,,0.00,WUHU216HW,2013-10-06 22:05:00,
2013-10-06 18:30:00,79.6,68.5,29.97,ESE,113,0.0,0.0,69,0.00,,,0.00,WUHU216HW,2013-10-06 22:30:00,
2013-10-06 18:35:00,79.6,68.5,29.97,ESE,113,0.0,0.0,69,0.00,,,0.00,WUHU216HW,2013-10-06 22:35:00,
2013-10-06 19:00:00,78.5,68.7,29.97,SE,135,0.4,0.4,72,0.00,,,0.00,WUHU216HW,2013-10-06 23:00:00,
2013-10-06 19:05:00,78.5,68.7,29.97,SE,135,0.4,0.4,72,0.00,,,0.00,WUHU216HW,2013-10-06 23:05:00,
2013-10-06 19:30:00,77.4,68.9,29.97,SE,135,1.1,1.1,75,0.00,,,0.00,WUHU216HW,2013-10-06 23:30:00,
2013-10-06 19:35:00,77.4,68.9,29.97,SE,135,1.1,1.1,75,0.00,,,0.00,WUHU216HW,2013-10-06 23:35:00,
2013-10-06 20:00:00,76.9,69.1,29.98,East,90,0.0,0.0,77,0.00,,,0.00,WUHU216HW,2013-10-07 00:00:00,
2013-10-06 20:05:00,76.9,69.1,29.98,East,90,0.0,0.0,77,0.00,,,0.00,WUHU216HW,2013-10-07 00:05:00,
2013-10-06 20:30:00,76.0,68.7,29.98,SSE,158,1.1,1.1,78,0.00,,,0.00,WUHU216HW,2013-10-07 00:30:00,
2013-10-06 20:35:00,76.0,68.7,29.98,SSE,158,1.1,1.1,78,0.00,,,0.00,WUHU216HW,2013-10-07 00:35:00,
2013-10-06 21:00:00,75.6,69.1,29.98,SSW,203,0.9,0.9,80,0.00,,,0.00,WUHU216HW,2013-10-07 01:00:00,
2013-10-06 21:05:00,75.6,69.1,29.98,SSW,203,0.9,0.9,80,0.00,,,0.00,WUHU216HW,2013-10-07 01:05:00,
2013-10-06 21:30:00,75.2,69.1,29.98,South,180,1.8,1.8,81,0.00,,,0.00,WUHU216HW,2013-10-07 01:30:00,
2013-10-06 21:35:00,75.2,69.1,29.98,South,180,1.8,1.8,81,0.00,,,0.00,WUHU216HW,2013-10-07 01:35:00,
2013-10-06 22:00:00,74.7,69.0,29.99,SSE,158,1.1,1.1,82,0.00,,,0.00,WUHU216HW,2013-10-07 02:00:00,
2013-10-06 22:05:00,74.7,69.0,29.99,SSE,158,1.1,1.1,82,0.00,,,0.00,WUHU216HW,2013-10-07 02:05:00,
2013-10-06 22:30:00,74.5,68.8,29.98,SSE,158,1.8,1.8,82,0.00,,,0.00,WUHU216HW,2013-10-07 02:30:00,
2013-10-06 22:35:00,74.5,68.8,29.98,SSE,158,1.8,1.8,82,0.00,,,0.00,WUHU216HW,2013-10-07 02:35:00,
2013-10-06 23:00:00,74.2,68.7,29.98,SE,135,1.1,1.1,83,0.00,,,0.00,WUHU216HW,2013-10-07 03:00:00,
2013-10-06 23:05:00,74.2,68.7,29.98,SE,135,1.1,1.1,83,0.00,,,0.00,WUHU216HW,2013-10-07 03:05:00,
2013-10-06 23:30:00,74.0,68.5,29.97,SE,135,1.1,1.1,83,0.00,,,0.00,WUHU216HW,2013-10-07 03:30:00,
2013-10-06 23:35:00,74.0,68.5,29.97,SE,135,1.1,1.1,83,0.00,,,0.00,WUHU216HW,2013-10-07 03:35:00,